Time;durP1;ratioP1;P1;durP2;ratioP2;P2;SDS_P1;SDS_P2;PMS_P1;PMS_P2;Temp;Humidity;BMP_temperature;BMP_pressure;BME280_temperature;BME280_humidity;BME280_pressure;Samples;Min_cycle;Max_cycle;Signal;HPM_P1;HPM_P2
2022/04/13 18:04:16;;;;;;;;;9.00;9.00;;;;;;;;5116153;27;1397700;-75
2022/04/13 18:06:41;;;;;;;;;8.75;7.75;;;;;;;;5138428;27;20656;-75
2022/04/13 18:09:07;;;;;;;;;6.75;6.75;;;;;;;;5145639;27;12049;-72
2022/04/13 18:11:32;;;;;;;;;6.75;6.75;;;;;;;;5145544;27;8823;-73
2022/04/13 18:13:58;;;;;;;;;5.75;5.00;;;;;;;;5144157;27;8811;-73
2022/04/13 18:16:23;;;;;;;;;9.75;9.25;;;;;;;;5126316;27;13816;-72
2022/04/13 18:18:49;;;;;;;;;10.50;9.00;;;;;;;;5143513;27;11306;-72
2022/04/13 18:21:15;;;;;;;;;9.00;8.25;;;;;;;;5147012;27;22089;-74
2022/04/13 18:23:40;;;;;;;;;11.50;11.25;;;;;;;;5125371;27;23499;-71
2022/04/13 18:26:06;;;;;;;;;13.75;9.75;;;;;;;;5141292;27;22357;-73
2022/04/13 18:28:31;;;;;;;;;9.00;8.25;;;;;;;;5142762;27;21926;-73
2022/04/13 18:30:56;;;;;;;;;9.00;8.50;;;;;;;;5142476;27;21975;-72
2022/04/13 18:33:22;;;;;;;;;10.00;7.25;;;;;;;;5142962;27;8807;-71
2022/04/13 18:35:47;;;;;;;;;7.25;7.00;;;;;;;;5144096;27;21378;-70
2022/04/13 18:38:12;;;;;;;;;8.25;7.75;;;;;;;;5144721;27;22719;-71
2022/04/13 18:40:38;;;;;;;;;7.50;7.00;;;;;;;;5144513;27;11538;-72
2022/04/13 18:43:03;;;;;;;;;10.75;8.25;;;;;;;;5142879;27;11648;-72
2022/04/13 18:45:29;;;;;;;;;9.50;9.50;;;;;;;;5142690;27;22050;-71
2022/04/13 18:47:54;;;;;;;;;12.50;11.50;;;;;;;;5124740;27;23651;-72
2022/04/13 18:50:21;;;;;;;;;13.75;11.00;;;;;;;;5145011;27;22450;-72
2022/04/13 18:52:46;;;;;;;;;13.50;11.50;;;;;;;;5145420;27;11493;-75
2022/04/13 18:55:12;;;;;;;;;9.00;9.00;;;;;;;;5123404;27;11208;-75
2022/04/13 18:57:37;;;;;;;;;12.50;12.50;;;;;;;;5147252;27;22236;-75
2022/04/13 19:00:04;;;;;;;;;10.00;9.00;;;;;;;;5144977;27;22452;-73
2022/04/13 19:02:29;;;;;;;;;15.75;11.75;;;;;;;;5143975;27;22800;-73
2022/04/13 19:04:54;;;;;;;;;10.25;10.25;;;;;;;;5142330;27;22510;-74
2022/04/13 19:07:20;;;;;;;;;15.00;13.50;;;;;;;;5124148;27;13156;-73
2022/04/13 19:09:45;;;;;;;;;13.25;13.25;;;;;;;;5144408;27;11522;-74
2022/04/13 19:12:10;;;;;;;;;16.25;14.00;;;;;;;;5141777;27;12527;-74
2022/04/13 19:14:36;;;;;;;;;17.00;14.25;;;;;;;;5137820;27;11378;-74
2022/04/13 19:17:01;;;;;;;;;15.25;15.25;;;;;;;;5133610;27;12572;-74
2022/04/13 19:19:27;;;;;;;;;10.25;10.25;;;;;;;;5128437;27;10403;-75
2022/04/13 19:21:53;;;;;;;;;15.25;14.25;;;;;;;;5120838;27;8950;-75
2022/04/13 19:24:19;;;;;;;;;16.00;14.00;;;;;;;;5121195;27;12197;-73
2022/04/13 19:26:45;;;;;;;;;17.25;15.00;;;;;;;;5120830;27;11597;-72
2022/04/13 19:29:11;;;;;;;;;18.50;18.00;;;;;;;;5120453;27;10421;-71
2022/04/13 19:31:36;;;;;;;;;15.00;14.00;;;;;;;;5120710;27;11468;-72
2022/04/13 19:34:02;;;;;;;;;21.00;16.25;;;;;;;;5120610;27;10522;-72
2022/04/13 19:36:29;;;;;;;;;19.75;18.50;;;;;;;;5120692;27;13510;-73
2022/04/13 19:38:55;;;;;;;;;18.75;14.75;;;;;;;;5120938;27;13293;-72
2022/04/13 19:41:20;;;;;;;;;18.75;17.50;;;;;;;;5120906;27;11473;-73
2022/04/13 19:43:45;;;;;;;;;20.25;15.50;;;;;;;;5120573;27;8968;-72
2022/04/13 19:46:11;;;;;;;;;10.50;8.75;;;;;;;;5120794;27;12792;-72
2022/04/13 19:48:36;;;;;;;;;15.75;14.00;;;;;;;;5120806;27;22624;-73
2022/04/13 19:51:10;;;;;;;;;17.75;13.25;;;;;;;;5110745;27;23219;-73
2022/04/13 19:53:36;;;;;;;;;17.25;14.75;;;;;;;;5141032;27;11569;-78
2022/04/13 19:56:01;;;;;;;;;13.50;13.25;;;;;;;;5141403;27;11416;-75
2022/04/13 19:58:27;;;;;;;;;13.50;12.50;;;;;;;;5141420;27;10347;-72
2022/04/13 20:00:52;;;;;;;;;12.00;10.50;;;;;;;;5122363;27;11402;-70
2022/04/13 20:03:18;;;;;;;;;12.25;12.25;;;;;;;;5140953;27;11393;-71
2022/04/13 20:05:43;;;;;;;;;11.25;11.25;;;;;;;;5121950;27;10696;-71
2022/04/13 20:08:09;;;;;;;;;15.75;13.00;;;;;;;;5121226;27;11168;-72
2022/04/13 20:10:34;;;;;;;;;14.75;12.25;;;;;;;;5140884;27;11435;-71
2022/04/13 20:12:59;;;;;;;;;12.50;12.50;;;;;;;;5140232;27;11409;-72
2022/04/13 20:15:26;;;;;;;;;13.50;12.25;;;;;;;;5139820;27;11428;-73
2022/04/13 20:18:02;;;;;;;;;14.50;13.50;;;;;;;;5141204;27;12877;-72
2022/04/13 20:20:31;;;;;;;;;9.50;9.50;;;;;;;;5120022;27;12833;-72
2022/04/13 20:22:56;;;;;;;;;11.50;11.25;;;;;;;;5139938;27;22210;-71
2022/04/13 20:25:22;;;;;;;;;9.50;8.50;;;;;;;;5120464;27;22586;-70
2022/04/13 20:27:48;;;;;;;;;9.50;8.25;;;;;;;;5139581;27;22365;-71
2022/04/13 20:30:17;;;;;;;;;9.00;9.00;;;;;;;;5140669;27;12026;-72
2022/04/13 20:32:43;;;;;;;;;7.50;6.25;;;;;;;;5140628;27;10356;-72
2022/04/13 20:35:08;;;;;;;;;13.00;11.00;;;;;;;;5140697;27;11471;-71
2022/04/13 20:37:34;;;;;;;;;12.25;9.75;;;;;;;;5139607;27;23165;-72
2022/04/13 20:39:59;;;;;;;;;13.00;11.25;;;;;;;;5139794;27;21453;-71
2022/04/13 20:42:24;;;;;;;;;7.50;5.50;;;;;;;;5139814;27;22068;-72
2022/04/13 20:44:49;;;;;;;;;9.00;8.00;;;;;;;;5139644;27;22406;-71
2022/04/13 20:47:15;;;;;;;;;18.25;15.25;;;;;;;;5140217;27;11375;-70
2022/04/13 20:49:40;;;;;;;;;19.75;17.50;;;;;;;;5139531;27;22583;-71
2022/04/13 20:52:05;;;;;;;;;11.50;11.00;;;;;;;;5139724;27;12696;-71
2022/04/13 20:54:31;;;;;;;;;11.25;9.25;;;;;;;;5140079;27;11986;-70
2022/04/13 20:56:57;;;;;;;;;16.50;13.00;;;;;;;;5140211;27;21377;-70
2022/04/13 20:59:22;;;;;;;;;11.00;11.00;;;;;;;;5139986;27;21659;-71
2022/04/13 21:01:48;;;;;;;;;13.25;12.00;;;;;;;;5140168;27;10332;-71
2022/04/13 21:04:13;;;;;;;;;14.00;12.25;;;;;;;;5121775;27;10726;-72
2022/04/13 21:06:39;;;;;;;;;13.75;13.75;;;;;;;;5140014;27;11452;-69
2022/04/13 21:09:04;;;;;;;;;14.00;13.00;;;;;;;;5120689;27;10890;-70
2022/04/13 21:11:29;;;;;;;;;13.75;12.25;;;;;;;;5139512;27;11338;-70
2022/04/13 21:13:55;;;;;;;;;16.75;13.25;;;;;;;;5139604;27;11368;-70
2022/04/13 21:16:20;;;;;;;;;11.00;11.00;;;;;;;;5140066;27;9618;-69
2022/04/13 21:18:45;;;;;;;;;13.00;11.75;;;;;;;;5139396;27;11518;-70
2022/04/13 21:21:11;;;;;;;;;12.25;11.00;;;;;;;;5139265;27;11614;-69
2022/04/13 21:23:37;;;;;;;;;13.50;13.50;;;;;;;;5139373;27;11756;-69
2022/04/13 21:26:03;;;;;;;;;13.00;12.25;;;;;;;;5140080;27;11665;-69
2022/04/13 21:28:28;;;;;;;;;12.50;12.50;;;;;;;;5140169;27;11397;-69
2022/04/13 21:30:54;;;;;;;;;12.00;11.00;;;;;;;;5139926;27;11357;-69
2022/04/13 21:33:19;;;;;;;;;11.25;11.00;;;;;;;;5140045;27;10404;-69
2022/04/13 21:35:44;;;;;;;;;11.50;8.75;;;;;;;;5120618;27;11044;-69
2022/04/13 21:38:10;;;;;;;;;10.25;10.00;;;;;;;;5138317;27;22639;-69
2022/04/13 21:40:36;;;;;;;;;10.50;10.50;;;;;;;;5138893;27;21661;-70
2022/04/13 21:43:01;;;;;;;;;11.00;10.25;;;;;;;;5138700;27;11529;-69
2022/04/13 21:45:27;;;;;;;;;10.00;8.50;;;;;;;;5139096;27;11329;-70
2022/04/13 21:47:52;;;;;;;;;12.00;11.00;;;;;;;;5120560;27;23537;-69
2022/04/13 21:50:18;;;;;;;;;6.50;5.75;;;;;;;;5120128;27;22011;-70
2022/04/13 21:52:43;;;;;;;;;11.25;11.25;;;;;;;;5139202;27;22187;-69
2022/04/13 21:55:09;;;;;;;;;11.25;11.25;;;;;;;;5119533;27;25488;-69
2022/04/13 21:57:34;;;;;;;;;13.00;11.50;;;;;;;;5139393;27;8806;-74
2022/04/13 21:59:59;;;;;;;;;5.00;3.50;;;;;;;;5137080;27;11361;-72
2022/04/13 22:02:25;;;;;;;;;3.00;2.75;;;;;;;;5137827;27;22185;-71
2022/04/13 22:04:50;;;;;;;;;12.75;8.00;;;;;;;;5138455;27;13085;-72
2022/04/13 22:07:15;;;;;;;;;10.75;10.00;;;;;;;;5138225;27;21403;-71
2022/04/13 22:09:41;;;;;;;;;9.50;9.50;;;;;;;;5138650;27;22579;-71
2022/04/13 22:12:06;;;;;;;;;9.00;8.00;;;;;;;;5137262;27;23386;-72
2022/04/13 22:14:32;;;;;;;;;8.00;8.00;;;;;;;;5119732;27;11669;-70
2022/04/13 22:16:57;;;;;;;;;7.00;7.00;;;;;;;;5138678;27;8787;-71
2022/04/13 22:19:23;;;;;;;;;11.00;11.00;;;;;;;;5138411;27;8806;-71
2022/04/13 22:21:50;;;;;;;;;11.75;9.00;;;;;;;;5137556;27;22192;-71
2022/04/13 22:24:15;;;;;;;;;9.50;9.50;;;;;;;;5138130;27;22892;-71
2022/04/13 22:26:41;;;;;;;;;8.00;8.00;;;;;;;;5138804;27;21650;-72
2022/04/13 22:29:06;;;;;;;;;11.00;9.75;;;;;;;;5139189;27;12573;-72
2022/04/13 22:31:33;;;;;;;;;12.75;9.00;;;;;;;;5120059;27;21942;-71
2022/04/13 22:33:58;;;;;;;;;9.00;7.50;;;;;;;;5138723;27;10602;-71
2022/04/13 22:36:24;;;;;;;;;12.00;10.00;;;;;;;;5138453;27;21622;-71
2022/04/13 22:38:50;;;;;;;;;10.50;9.00;;;;;;;;5120694;27;25794;-71
2022/04/13 22:41:15;;;;;;;;;8.00;7.50;;;;;;;;5139009;27;22551;-71
2022/04/13 22:43:40;;;;;;;;;8.00;7.75;;;;;;;;5138540;27;21309;-71
2022/04/13 22:46:07;;;;;;;;;9.00;9.00;;;;;;;;5139350;27;8898;-71
2022/04/13 22:48:32;;;;;;;;;11.50;9.50;;;;;;;;5138155;27;11967;-71
2022/04/13 22:51:01;;;;;;;;;8.50;8.50;;;;;;;;5122802;27;23653;-72
2022/04/13 22:53:26;;;;;;;;;2.75;2.75;;;;;;;;5123355;27;24826;-71
2022/04/13 22:55:51;;;;;;;;;7.50;7.00;;;;;;;;5142756;27;11491;-72
2022/04/13 22:58:16;;;;;;;;;10.50;8.50;;;;;;;;5142304;27;11302;-71
2022/04/13 23:00:44;;;;;;;;;11.00;11.00;;;;;;;;5141712;27;21522;-73
2022/04/13 23:03:10;;;;;;;;;12.00;8.25;;;;;;;;5142167;27;21823;-72
2022/04/13 23:05:35;;;;;;;;;8.25;8.25;;;;;;;;5142473;27;21624;-71
2022/04/13 23:08:01;;;;;;;;;10.00;8.00;;;;;;;;5142331;27;16625;-71
2022/04/13 23:10:26;;;;;;;;;12.00;7.00;;;;;;;;5141858;27;22657;-72
2022/04/13 23:12:51;;;;;;;;;8.50;8.00;;;;;;;;5123550;27;8879;-72
2022/04/13 23:15:17;;;;;;;;;8.25;7.50;;;;;;;;5141528;27;21478;-72
2022/04/13 23:17:42;;;;;;;;;8.50;8.50;;;;;;;;5141647;27;10513;-72
2022/04/13 23:20:08;;;;;;;;;11.00;8.50;;;;;;;;5141903;27;9485;-71
2022/04/13 23:22:34;;;;;;;;;9.50;8.25;;;;;;;;5142247;27;16928;-71
2022/04/13 23:25:01;;;;;;;;;8.00;7.75;;;;;;;;5142218;27;21358;-71
2022/04/13 23:27:26;;;;;;;;;10.25;8.50;;;;;;;;5141772;27;10487;-71
2022/04/13 23:29:51;;;;;;;;;9.00;9.00;;;;;;;;5141546;27;21317;-70
2022/04/13 23:32:18;;;;;;;;;11.75;10.50;;;;;;;;5141128;27;21334;-71
2022/04/13 23:34:43;;;;;;;;;9.50;9.50;;;;;;;;5123132;27;22732;-71
2022/04/13 23:37:08;;;;;;;;;10.75;8.00;;;;;;;;5141608;27;22188;-70
2022/04/13 23:39:34;;;;;;;;;14.25;11.25;;;;;;;;5141720;27;22023;-71
2022/04/13 23:41:59;;;;;;;;;9.00;7.75;;;;;;;;5141292;27;21846;-72
2022/04/13 23:44:24;;;;;;;;;11.75;11.00;;;;;;;;5141459;27;22825;-72
2022/04/13 23:46:57;;;;;;;;;10.00;8.00;;;;;;;;5141229;27;22480;-71
2022/04/13 23:49:22;;;;;;;;;6.75;6.50;;;;;;;;5140572;27;23130;-72
2022/04/13 23:51:47;;;;;;;;;8.00;7.00;;;;;;;;5140303;27;22111;-71
2022/04/13 23:54:12;;;;;;;;;9.75;9.75;;;;;;;;5122506;27;13229;-71
2022/04/13 23:56:38;;;;;;;;;12.25;9.50;;;;;;;;5123018;27;11721;-71
2022/04/13 23:59:03;;;;;;;;;10.75;10.75;;;;;;;;5141231;27;23039;-71
